Time;durP1;ratioP1;P1;durP2;ratioP2;P2;SDS_P1;SDS_P2;PMS_P1;PMS_P2;Temp;Humidity;BMP_temperature;BMP_pressure;BME280_temperature;BME280_humidity;BME280_pressure;Samples;Min_cycle;Max_cycle;Signal;HPM_P1;HPM_P2
2021/08/20 00:01:54;;;;;;;7.32;4.82;;;;;;;16.20;nan;101407.19;6240899;22;20015;-76
2021/08/20 00:04:20;;;;;;;9.25;5.75;;;;;;;16.19;nan;101404.75;6268245;22;20048;-77
2021/08/20 00:06:45;;;;;;;10.93;6.10;;;;;;;16.27;nan;101413.13;6269009;22;20046;-76
2021/08/20 00:09:11;;;;;;;8.70;6.00;;;;;;;16.25;nan;101409.88;6268797;22;20011;-78
2021/08/20 00:11:37;;;;;;;8.90;5.85;;;;;;;16.07;nan;101410.41;6268453;22;20053;-76
2021/08/20 00:14:07;;;;;;;8.90;6.13;;;;;;;16.10;nan;101406.34;6269005;22;20082;-77
2021/08/20 00:16:33;;;;;;;8.02;5.93;;;;;;;16.04;nan;101407.44;6268094;22;20053;-77
2021/08/20 00:18:59;;;;;;;10.48;6.05;;;;;;;15.94;nan;101410.91;6269099;22;20057;-79
2021/08/20 00:21:24;;;;;;;9.25;6.50;;;;;;;16.13;nan;101412.03;6267947;22;20077;-78
2021/08/20 00:23:50;;;;;;;8.63;5.90;;;;;;;16.25;nan;101401.78;6241496;22;20394;-77
2021/08/20 00:26:16;;;;;;;8.82;6.25;;;;;;;16.15;nan;101400.94;6268099;22;20411;-77
2021/08/20 00:28:41;;;;;;;9.70;6.25;;;;;;;16.24;nan;101404.75;6268343;22;20034;-77
2021/08/20 00:31:06;;;;;;;8.02;6.00;;;;;;;16.29;nan;101407.44;6268108;22;20006;-77
2021/08/20 00:33:34;;;;;;;9.27;6.07;;;;;;;16.40;nan;101403.69;6269667;22;20003;-77
2021/08/20 00:36:00;;;;;;;11.50;6.50;;;;;;;16.33;nan;101398.53;6269160;22;19999;-76
2021/08/20 00:38:26;;;;;;;9.48;6.50;;;;;;;16.32;nan;101398.78;6269786;22;20008;-77
2021/08/20 00:40:53;;;;;;;13.20;7.65;;;;;;;16.31;nan;101400.69;6268474;22;20004;-76
2021/08/20 00:43:18;;;;;;;15.65;6.40;;;;;;;16.28;nan;101393.13;6269091;22;20008;-79
2021/08/20 00:45:55;;;;;;;10.40;7.10;;;;;;;16.09;nan;101391.22;6269257;22;19999;-77
2021/08/20 00:48:21;;;;;;;10.48;6.53;;;;;;;16.30;nan;101390.16;6268072;22;20011;-76
2021/08/20 00:50:49;;;;;;;10.98;6.75;;;;;;;16.26;nan;101384.47;6268756;22;20049;-77
2021/08/20 00:53:15;;;;;;;11.40;6.53;;;;;;;16.31;nan;101391.75;6242273;22;20000;-77
2021/08/20 00:55:40;;;;;;;9.32;6.57;;;;;;;16.34;nan;101388.53;6268891;22;20065;-80
2021/08/20 00:58:06;;;;;;;14.20;7.53;;;;;;;16.07;nan;101390.69;6242001;22;20003;-77
2021/08/20 01:00:31;;;;;;;11.00;7.13;;;;;;;16.14;nan;101392.03;6242025;22;20003;-77
2021/08/20 01:02:58;;;;;;;10.57;7.22;;;;;;;15.98;nan;101396.63;6241989;22;20007;-78
2021/08/20 01:05:23;;;;;;;11.15;7.72;;;;;;;15.95;nan;101397.13;6269420;22;20003;-77
2021/08/20 01:07:49;;;;;;;11.07;7.32;;;;;;;16.02;nan;101399.59;6242119;22;20150;-77
2021/08/20 01:10:15;;;;;;;12.18;7.47;;;;;;;16.12;nan;101404.19;6268218;22;20003;-77
2021/08/20 01:12:41;;;;;;;13.98;8.45;;;;;;;16.11;nan;101400.69;6242025;22;20019;-77
2021/08/20 01:15:08;;;;;;;14.57;8.48;;;;;;;16.17;nan;101401.50;6242330;22;20014;-80
2021/08/20 01:17:34;;;;;;;14.02;9.52;;;;;;;16.07;nan;101407.72;6269801;22;19999;-78
2021/08/20 01:20:00;;;;;;;14.25;9.13;;;;;;;16.15;nan;101403.66;6269317;22;20054;-78
2021/08/20 01:22:26;;;;;;;15.45;9.18;;;;;;;16.09;nan;101404.72;6241757;22;20008;-80
2021/08/20 01:25:02;;;;;;;12.90;8.07;;;;;;;16.14;nan;101402.03;6269237;22;20007;-78
2021/08/20 01:27:28;;;;;;;13.95;8.68;;;;;;;16.23;nan;101403.13;6269968;22;20000;-79
2021/08/20 01:29:54;;;;;;;13.93;8.85;;;;;;;16.15;nan;101403.66;6269812;22;20447;-77
2021/08/20 01:32:19;;;;;;;16.98;9.55;;;;;;;16.16;nan;101413.41;6268460;22;20035;-76
2021/08/20 01:34:45;;;;;;;20.10;8.68;;;;;;;16.17;nan;101412.31;6269789;22;20049;-77
2021/08/20 01:37:10;;;;;;;14.40;8.98;;;;;;;16.05;nan;101406.34;6269387;22;20137;-78
2021/08/20 01:39:36;;;;;;;15.90;9.98;;;;;;;15.98;nan;101407.44;6268418;22;20010;-77
2021/08/20 01:42:01;;;;;;;13.57;8.95;;;;;;;15.90;nan;101423.34;6271122;22;20439;-78
2021/08/20 01:44:27;;;;;;;15.07;9.23;;;;;;;15.99;nan;101422.56;6242344;22;20030;-46
2021/08/20 01:46:52;;;;;;;14.68;9.00;;;;;;;15.88;nan;101420.91;6270135;22;20612;-47
2021/08/20 01:49:18;;;;;;;17.33;9.32;;;;;;;15.93;nan;101417.41;6267751;22;20023;-47
2021/08/20 01:51:43;;;;;;;14.07;9.07;;;;;;;15.92;nan;101422.00;6268020;22;20003;-47
2021/08/20 01:54:09;;;;;;;15.95;9.43;;;;;;;15.90;nan;101424.16;6269178;22;20003;-48
2021/08/20 01:56:35;;;;;;;14.63;8.90;;;;;;;15.89;nan;101417.13;6269846;22;20011;-47
2021/08/20 01:59:02;;;;;;;14.85;8.75;;;;;;;15.97;nan;101418.50;6270923;22;20007;-47
2021/08/20 02:01:29;;;;;;;15.68;8.65;;;;;;;15.98;nan;101420.97;6268171;22;20126;-47
2021/08/20 02:03:55;;;;;;;12.52;8.55;;;;;;;16.04;nan;101418.25;6269389;22;20004;-47
2021/08/20 02:06:20;;;;;;;15.70;9.60;;;;;;;15.92;nan;101415.78;6240400;22;20090;-46
2021/08/20 02:08:46;;;;;;;11.93;7.82;;;;;;;15.84;nan;101419.84;6241624;22;20008;-47
2021/08/20 02:11:12;;;;;;;11.23;6.68;;;;;;;15.94;nan;101419.03;6269397;22;20423;-46
2021/08/20 02:13:39;;;;;;;13.07;6.75;;;;;;;15.95;nan;101409.84;6269380;22;20339;-46
2021/08/20 02:16:05;;;;;;;8.93;6.15;;;;;;;15.85;nan;101415.25;6242281;22;20007;-48
2021/08/20 02:18:30;;;;;;;11.18;6.30;;;;;;;15.91;nan;101417.69;6242357;22;20015;-46
2021/08/20 02:20:56;;;;;;;10.00;6.55;;;;;;;15.86;nan;101417.69;6268472;22;20007;-47
2021/08/20 02:23:21;;;;;;;11.05;6.63;;;;;;;15.92;nan;101416.59;6269213;22;20010;-48
2021/08/20 02:25:47;;;;;;;13.50;7.40;;;;;;;15.88;nan;101407.41;6267745;22;20432;-46
2021/08/20 02:28:12;;;;;;;11.52;7.22;;;;;;;15.87;nan;101413.09;6268540;22;20027;-46
2021/08/20 02:30:38;;;;;;;13.13;7.70;;;;;;;15.88;nan;101410.13;6268601;22;20003;-47
2021/08/20 02:33:04;;;;;;;10.23;7.38;;;;;;;15.80;nan;101407.09;6269102;22;20027;-46
2021/08/20 02:35:29;;;;;;;12.50;6.93;;;;;;;15.77;nan;101411.16;6268766;22;20074;-47
2021/08/20 02:37:56;;;;;;;11.70;6.90;;;;;;;15.87;nan;101416.59;6269371;22;20457;-46
2021/08/20 02:40:22;;;;;;;12.23;7.35;;;;;;;15.84;nan;101414.44;6267975;22;20006;-47
2021/08/20 02:42:48;;;;;;;10.95;7.47;;;;;;;15.79;nan;101414.41;6241850;22;20071;-47
2021/08/20 02:45:14;;;;;;;12.18;7.57;;;;;;;15.78;nan;101418.19;6268545;22;20491;-47
2021/08/20 02:47:40;;;;;;;12.75;7.68;;;;;;;15.72;nan;101411.16;6268812;22;20003;-46
2021/08/20 02:50:07;;;;;;;11.63;6.28;;;;;;;15.74;nan;101410.88;6213833;22;20078;-47
2021/08/20 02:52:32;;;;;;;11.35;6.00;;;;;;;15.77;nan;101416.56;6240636;22;20000;-47
2021/08/20 02:54:58;;;;;;;12.35;6.47;;;;;;;15.93;nan;101415.53;6240368;22;20003;-47
2021/08/20 02:57:27;;;;;;;9.55;6.18;;;;;;;15.90;nan;101421.47;6268065;22;20000;-47
2021/08/20 02:59:54;;;;;;;9.15;5.85;;;;;;;15.75;nan;101426.81;6241490;22;20007;-46
2021/08/20 03:02:19;;;;;;;8.73;5.50;;;;;;;15.79;nan;101427.91;6267377;22;20012;-47
2021/08/20 03:04:45;;;;;;;7.68;5.35;;;;;;;15.75;nan;101426.81;6268897;22;20007;-48
2021/08/20 03:07:10;;;;;;;8.65;5.30;;;;;;;15.94;nan;101429.84;6241305;22;20378;-46
2021/08/20 03:09:36;;;;;;;8.68;5.65;;;;;;;15.85;nan;101432.28;6241211;22;20011;-47
2021/08/20 03:12:01;;;;;;;10.82;5.22;;;;;;;15.86;nan;101433.88;6268687;22;19999;-48
2021/08/20 03:14:27;;;;;;;10.73;5.53;;;;;;;15.84;nan;101436.06;6241796;22;20763;-47
2021/08/20 03:16:53;;;;;;;8.80;5.18;;;;;;;15.79;nan;101437.91;6268960;22;20004;-46
2021/08/20 03:19:18;;;;;;;10.27;5.60;;;;;;;15.91;nan;101442.00;6268226;22;20465;-47
2021/08/20 03:21:44;;;;;;;7.90;5.30;;;;;;;15.95;nan;101445.78;6241087;22;20022;-47
2021/08/20 03:24:10;;;;;;;10.23;6.40;;;;;;;15.79;nan;101441.41;6267896;22;20063;-46
2021/08/20 03:26:36;;;;;;;11.27;6.53;;;;;;;15.91;nan;101442.00;6241436;22;20008;-47
2021/08/20 03:29:01;;;;;;;11.45;6.70;;;;;;;15.98;nan;101456.09;6268731;22;20360;-46
2021/08/20 03:31:27;;;;;;;12.05;6.50;;;;;;;16.06;nan;101445.81;6267720;22;20160;-46
2021/08/20 03:33:54;;;;;;;8.65;6.15;;;;;;;16.09;nan;101442.56;6241795;22;20004;-46
2021/08/20 03:36:21;;;;;;;11.75;6.82;;;;;;;16.04;nan;101453.38;6267426;22;19999;-46
2021/08/20 03:38:47;;;;;;;9.57;6.50;;;;;;;15.99;nan;101460.41;6268285;22;20007;-47
2021/08/20 03:41:12;;;;;;;11.10;7.10;;;;;;;15.84;nan;101460.38;6268026;22;20550;-47
2021/08/20 03:43:38;;;;;;;9.40;5.63;;;;;;;15.75;nan;101459.25;6268713;22;20011;-47
2021/08/20 03:46:06;;;;;;;11.73;6.43;;;;;;;15.87;nan;101446.31;6268307;22;20458;-46
2021/08/20 03:48:33;;;;;;;8.88;6.28;;;;;;;15.91;nan;101458.22;6266353;22;20254;-47
2021/08/20 03:50:59;;;;;;;7.40;5.30;;;;;;;15.84;nan;101451.44;6266969;22;20081;-47
2021/08/20 03:53:24;;;;;;;8.00;5.50;;;;;;;15.84;nan;101449.56;6266584;22;20446;-47
2021/08/20 03:55:50;;;;;;;9.00;6.03;;;;;;;15.83;nan;101450.63;6241105;22;20008;-46
2021/08/20 03:58:16;;;;;;;8.80;5.75;;;;;;;15.76;nan;101460.06;6268176;22;20356;-46
2021/08/20 04:00:45;;;;;;;9.32;6.05;;;;;;;15.85;nan;101459.28;6267894;22;19999;-48
2021/08/20 04:03:11;;;;;;;8.48;5.15;;;;;;;15.81;nan;101460.09;6267928;22;20019;-47
2021/08/20 04:05:36;;;;;;;9.00;5.57;;;;;;;15.74;nan;101470.31;6268340;22;20053;-48
2021/08/20 04:08:01;;;;;;;8.63;5.82;;;;;;;15.68;nan;101464.91;6267684;22;20006;-47
2021/08/20 04:10:27;;;;;;;11.70;4.97;;;;;;;15.70;nan;101465.44;6268015;22;20784;-46
2021/08/20 04:12:53;;;;;;;9.48;4.85;;;;;;;15.56;nan;101472.38;6268262;22;20305;-47
2021/08/20 04:15:18;;;;;;;7.45;4.95;;;;;;;15.50;nan;101472.63;6267384;22;20011;-46
2021/08/20 04:17:44;;;;;;;8.18;5.30;;;;;;;15.64;nan;101482.72;6268069;22;19999;-46
2021/08/20 04:20:10;;;;;;;9.15;5.65;;;;;;;15.66;nan;101485.16;6267604;22;20009;-47
2021/08/20 04:22:36;;;;;;;8.68;5.97;;;;;;;15.54;nan;101489.91;6266056;22;20343;-46
2021/08/20 04:25:02;;;;;;;10.23;6.60;;;;;;;15.59;nan;101485.38;6241119;22;20008;-46
2021/08/20 04:27:28;;;;;;;11.25;5.90;;;;;;;15.66;nan;101491.38;6268203;22;20022;-47
2021/08/20 04:29:53;;;;;;;11.98;6.45;;;;;;;15.64;nan;101492.72;6267559;22;20498;-47
2021/08/20 04:32:19;;;;;;;10.18;6.07;;;;;;;15.76;nan;101482.47;6240487;22;20052;-47
2021/08/20 04:34:44;;;;;;;9.32;5.13;;;;;;;15.73;nan;101493.00;6268340;22;20003;-47
2021/08/20 04:37:10;;;;;;;9.35;4.75;;;;;;;15.68;nan;101486.50;6266868;22;20000;-47
2021/08/20 04:39:35;;;;;;;10.25;4.70;;;;;;;15.74;nan;101491.94;6267024;22;20423;-47
2021/08/20 04:42:01;;;;;;;10.05;6.03;;;;;;;15.77;nan;101496.81;6267319;22;20007;-46
2021/08/20 04:44:26;;;;;;;9.80;6.15;;;;;;;15.87;nan;101494.16;6267413;22;20049;-47
2021/08/20 04:46:52;;;;;;;11.23;6.50;;;;;;;15.85;nan;101497.13;6268175;22;19999;-48
2021/08/20 04:49:17;;;;;;;9.32;6.50;;;;;;;15.79;nan;101494.66;6267496;22;20077;-46
2021/08/20 04:51:43;;;;;;;12.60;6.93;;;;;;;16.00;nan;101499.88;6267421;22;20007;-47
2021/08/20 04:54:09;;;;;;;9.93;6.55;;;;;;;16.09;nan;101496.66;6262832;22;20007;-47
2021/08/20 04:56:36;;;;;;;10.90;6.82;;;;;;;16.17;nan;101494.25;6266434;22;20339;-47
2021/08/20 04:59:02;;;;;;;13.80;6.80;;;;;;;16.19;nan;101502.91;6239702;22;20447;-46
2021/08/20 05:01:28;;;;;;;12.57;6.80;;;;;;;16.20;nan;101492.91;6264368;22;20471;-47
2021/08/20 05:03:53;;;;;;;11.15;6.57;;;;;;;16.12;nan;101499.63;6264947;22;20007;-48
2021/08/20 05:06:20;;;;;;;13.65;7.15;;;;;;;16.15;nan;101500.97;6264436;22;20308;-46
2021/08/20 05:08:45;;;;;;;11.35;7.45;;;;;;;16.00;nan;101497.19;6265058;22;20317;-47
2021/08/20 05:11:11;;;;;;;10.60;6.38;;;;;;;16.11;nan;101502.59;6272312;22;20144;-50
2021/08/20 05:13:36;;;;;;;12.95;6.95;;;;;;;15.94;nan;101511.72;6266545;22;20004;-46
2021/08/20 05:16:02;;;;;;;11.38;6.95;;;;;;;16.12;nan;101505.03;6266672;22;20045;-47
2021/08/20 05:18:27;;;;;;;9.50;7.00;;;;;;;16.20;nan;101507.22;6265178;22;20035;-47
2021/08/20 05:20:53;;;;;;;10.02;6.38;;;;;;;16.23;nan;101511.28;6266547;22;20098;-46
2021/08/20 05:23:18;;;;;;;10.32;6.55;;;;;;;16.13;nan;101508.53;6264415;22;20007;-47
2021/08/20 05:25:44;;;;;;;9.90;6.38;;;;;;;16.29;nan;101512.91;6266122;22;20034;-47
2021/08/20 05:28:09;;;;;;;11.60;7.03;;;;;;;16.37;nan;101515.09;6266857;22;20018;-47
2021/08/20 05:30:35;;;;;;;11.75;6.60;;;;;;;16.44;nan;101504.81;6266317;22;20414;-47
2021/08/20 05:33:02;;;;;;;9.93;6.45;;;;;;;16.57;nan;101515.13;6266706;22;20034;-46
2021/08/20 05:35:27;;;;;;;11.43;7.15;;;;;;;16.56;nan;101518.91;6266141;22;20042;-47
2021/08/20 05:37:53;;;;;;;12.52;6.50;;;;;;;16.51;nan;101521.59;6264997;22;20431;-47
2021/08/20 05:40:19;;;;;;;10.75;6.28;;;;;;;16.30;nan;101512.63;6267124;22;20302;-46
2021/08/20 05:42:44;;;;;;;8.88;6.15;;;;;;;16.45;nan;101514.56;6237955;22;20007;-46
2021/08/20 05:45:11;;;;;;;10.52;6.55;;;;;;;16.52;nan;101523.25;6264914;22;20374;-47
2021/08/20 05:47:37;;;;;;;9.35;6.40;;;;;;;16.62;nan;101515.13;6237867;22;20007;-47
2021/08/20 05:50:04;;;;;;;10.10;7.03;;;;;;;16.60;nan;101520.00;6265554;22;20008;-47
2021/08/20 05:52:31;;;;;;;12.15;7.38;;;;;;;16.55;nan;101522.69;6263233;22;20381;-48
2021/08/20 05:54:58;;;;;;;13.38;6.93;;;;;;;16.32;nan;101517.78;6233187;22;20033;-47
2021/08/20 05:57:25;;;;;;;11.45;6.82;;;;;;;16.44;nan;101525.66;6264001;22;20423;-46
2021/08/20 05:59:50;;;;;;;13.23;7.65;;;;;;;16.46;nan;101527.00;6262722;22;20008;-48
2021/08/20 06:02:16;;;;;;;12.73;7.45;;;;;;;16.52;nan;101525.94;6263925;22;20022;-46
2021/08/20 06:04:41;;;;;;;11.48;7.20;;;;;;;16.42;nan;101531.34;6265557;22;20003;-47
2021/08/20 06:07:07;;;;;;;11.18;7.43;;;;;;;16.43;nan;101530.25;6262043;22;20019;-47
2021/08/20 06:09:33;;;;;;;13.30;8.35;;;;;;;16.39;nan;101525.66;6265106;22;20010;-46
2021/08/20 06:11:58;;;;;;;14.20;8.45;;;;;;;16.50;nan;101522.69;6264706;22;20559;-46
2021/08/20 06:14:24;;;;;;;12.00;8.13;;;;;;;16.54;nan;101518.38;6261864;22;20042;-47
2021/08/20 06:16:54;;;;;;;10.55;7.50;;;;;;;16.61;nan;101527.03;6263949;22;20063;-47
2021/08/20 06:19:24;;;;;;;13.38;7.07;;;;;;;16.63;nan;101524.06;6262826;22;20458;-47
2021/08/20 06:21:50;;;;;;;12.32;7.13;;;;;;;16.71;nan;101528.16;6262354;22;20000;-47
2021/08/20 06:24:15;;;;;;;16.60;7.20;;;;;;;16.80;nan;101529.22;6265089;22;20320;-47
2021/08/20 06:26:41;;;;;;;11.75;6.78;;;;;;;16.78;nan;101539.53;6265547;22;19999;-47
2021/08/20 06:29:06;;;;;;;11.75;7.15;;;;;;;16.78;nan;101536.81;6266271;22;20004;-46
2021/08/20 06:31:32;;;;;;;11.75;7.30;;;;;;;16.74;nan;101541.16;6266649;22;20030;-47
2021/08/20 06:33:58;;;;;;;10.45;7.25;;;;;;;16.74;nan;101536.53;6265984;22;20384;-48
2021/08/20 06:36:24;;;;;;;12.70;7.63;;;;;;;16.78;nan;101544.94;6265094;22;20443;-46
2021/08/20 06:38:50;;;;;;;9.98;6.80;;;;;;;16.78;nan;101537.63;6214265;22;20104;-48
2021/08/20 06:41:15;;;;;;;10.70;7.50;;;;;;;16.67;nan;101548.69;6265455;22;20418;-47
2021/08/20 06:43:41;;;;;;;11.40;7.13;;;;;;;16.61;nan;101545.97;6266905;22;20007;-47
2021/08/20 06:46:06;;;;;;;14.43;6.97;;;;;;;16.67;nan;101535.16;6264155;22;20004;-47
2021/08/20 06:48:32;;;;;;;13.35;6.95;;;;;;;16.65;nan;101531.91;6264287;22;20008;-47
2021/08/20 06:50:57;;;;;;;10.13;6.70;;;;;;;16.69;nan;101535.72;6263244;22;20307;-48
2021/08/20 06:53:23;;;;;;;11.50;6.88;;;;;;;16.68;nan;101534.91;6260582;22;20061;-47
2021/08/20 06:55:48;;;;;;;13.02;7.80;;;;;;;16.61;nan;101539.75;6264798;22;20477;-48
2021/08/20 06:58:14;;;;;;;12.45;6.60;;;;;;;16.61;nan;101540.56;6265990;22;20007;-47
2021/08/20 07:00:39;;;;;;;12.77;6.80;;;;;;;16.65;nan;101542.72;6265433;22;20000;-46
2021/08/20 07:03:05;;;;;;;12.55;6.95;;;;;;;16.51;nan;101537.00;6266615;22;20004;-48
2021/08/20 07:05:31;;;;;;;9.88;6.85;;;;;;;16.48;nan;101532.97;6265702;22;20485;-48
2021/08/20 07:07:57;;;;;;;12.85;7.10;;;;;;;16.52;nan;101536.78;6268848;22;20007;-47
2021/08/20 07:10:22;;;;;;;10.48;6.22;;;;;;;16.55;nan;101538.13;6239479;22;19999;-47
2021/08/20 07:12:48;;;;;;;10.13;7.00;;;;;;;16.58;nan;101537.59;6267163;22;20010;-47
2021/08/20 07:15:14;;;;;;;9.63;6.32;;;;;;;16.54;nan;101534.59;6266690;22;20000;-47
2021/08/20 07:17:41;;;;;;;11.07;6.25;;;;;;;16.61;nan;101534.34;6240801;22;20400;-46
2021/08/20 07:20:08;;;;;;;11.02;6.45;;;;;;;16.61;nan;101545.97;6266062;22;20178;-47
2021/08/20 07:22:33;;;;;;;10.00;6.32;;;;;;;16.71;nan;101541.69;6267308;22;19996;-47
2021/08/20 07:25:00;;;;;;;9.55;6.50;;;;;;;16.39;nan;101540.00;6267051;22;20015;-46
2021/08/20 07:27:25;;;;;;;13.02;7.28;;;;;;;16.59;nan;101545.44;6239738;22;20007;-47
2021/08/20 07:29:51;;;;;;;14.45;6.55;;;;;;;16.56;nan;101554.09;6266847;22;20000;-47
2021/08/20 07:32:16;;;;;;;12.18;7.00;;;;;;;16.62;nan;101553.00;6265773;22;20578;-47
2021/08/20 07:34:42;;;;;;;13.43;7.25;;;;;;;16.51;nan;101566.78;6240472;22;20004;-46
2021/08/20 07:37:08;;;;;;;14.60;7.07;;;;;;;16.45;nan;101570.56;6266787;22;20435;-47
2021/08/20 07:39:36;;;;;;;13.73;6.65;;;;;;;16.46;nan;101574.88;6266002;22;20004;-47
2021/08/20 07:42:03;;;;;;;8.38;4.50;;;;;;;16.46;nan;101577.59;6263844;22;20007;-47
2021/08/20 07:44:29;;;;;;;7.65;4.60;;;;;;;16.30;nan;101577.53;6265123;22;20014;-48
2021/08/20 07:46:55;;;;;;;9.30;4.57;;;;;;;16.31;nan;101581.06;6265282;22;19992;-48
2021/08/20 07:49:20;;;;;;;9.95;5.05;;;;;;;16.08;nan;101582.34;6264803;22;20007;-47
2021/08/20 07:51:46;;;;;;;7.93;4.68;;;;;;;15.84;nan;101575.75;6264804;22;20085;-47
2021/08/20 07:54:11;;;;;;;7.18;3.95;;;;;;;15.92;nan;101577.94;6265672;22;19995;-46
2021/08/20 07:56:37;;;;;;;8.43;4.95;;;;;;;16.06;nan;101576.38;6267076;22;20011;-47
2021/08/20 07:59:02;;;;;;;9.57;4.65;;;;;;;16.19;nan;101572.38;6259516;22;20027;-77
2021/08/20 08:01:28;;;;;;;10.02;4.70;;;;;;;16.28;nan;101579.69;6211742;23;20008;-77
2021/08/20 08:03:57;;;;;;;6.18;4.20;;;;;;;16.33;nan;101579.72;6236939;22;20091;-77
2021/08/20 08:06:26;;;;;;;5.60;3.72;;;;;;;16.42;nan;101590.84;6239012;23;20004;-78
2021/08/20 08:08:51;;;;;;;7.80;4.00;;;;;;;16.51;nan;101585.69;6211294;23;20451;-77
2021/08/20 08:11:17;;;;;;;7.75;4.25;;;;;;;16.61;nan;101585.75;6238413;23;20000;-77
2021/08/20 08:13:43;;;;;;;6.38;4.00;;;;;;;16.69;nan;101584.41;6212008;22;20008;-78
2021/08/20 08:16:08;;;;;;;5.90;4.00;;;;;;;16.76;nan;101585.00;6238841;23;20004;-78
2021/08/20 08:18:34;;;;;;;5.97;3.75;;;;;;;16.82;nan;101589.31;6238333;23;20007;-76
2021/08/20 08:20:59;;;;;;;5.25;3.13;;;;;;;16.67;nan;101595.50;6238506;23;20077;-76
2021/08/20 08:23:25;;;;;;;6.60;3.20;;;;;;;16.72;nan;101598.25;6239120;23;20004;-76
2021/08/20 08:25:50;;;;;;;6.63;3.65;;;;;;;16.61;nan;101591.97;6237787;22;20076;-77
2021/08/20 08:28:16;;;;;;;4.65;2.53;;;;;;;16.62;nan;101603.59;6238324;23;20061;-77
2021/08/20 08:30:42;;;;;;;4.15;2.65;;;;;;;16.69;nan;101601.47;6211871;23;20019;-76
2021/08/20 08:33:09;;;;;;;3.22;2.53;;;;;;;16.82;nan;101595.53;6211760;23;20018;-79
2021/08/20 08:35:35;;;;;;;3.03;2.50;;;;;;;16.92;nan;101592.84;6239698;22;20027;-76
2021/08/20 08:38:12;;;;;;;5.75;2.83;;;;;;;17.02;nan;101604.75;6212113;23;20003;-77
2021/08/20 08:40:42;;;;;;;4.05;2.55;;;;;;;17.10;nan;101599.63;6238572;23;20004;-78
2021/08/20 08:43:09;;;;;;;5.78;2.70;;;;;;;17.10;nan;101604.22;6211165;23;20004;-77
2021/08/20 08:45:35;;;;;;;5.55;2.72;;;;;;;17.11;nan;101601.25;6210614;23;20000;-76
2021/08/20 08:48:04;;;;;;;3.60;2.70;;;;;;;17.03;nan;101609.09;6237347;23;20031;-77
2021/08/20 08:50:31;;;;;;;4.80;3.15;;;;;;;16.95;nan;101613.16;6238431;23;20004;-77
2021/08/20 08:52:56;;;;;;;4.30;2.72;;;;;;;16.90;nan;101608.56;6212010;23;20042;-79
2021/08/20 08:55:22;;;;;;;4.40;2.90;;;;;;;16.96;nan;101606.66;6238793;22;20528;-76
2021/08/20 08:57:47;;;;;;;4.43;3.00;;;;;;;16.99;nan;101614.22;6238623;23;20083;-77
2021/08/20 09:00:14;;;;;;;3.97;2.83;;;;;;;17.04;nan;101611.53;6258673;22;20030;-76
2021/08/20 09:02:39;;;;;;;4.20;2.55;;;;;;;17.10;nan;101615.88;6268604;22;20023;-76
2021/08/20 09:05:10;;;;;;;3.55;3.13;;;;;;;17.19;nan;101614.22;6240564;22;20025;-76
2021/08/20 09:07:37;;;;;;;5.57;3.10;;;;;;;17.25;nan;101619.66;6269709;22;20011;-76
2021/08/20 09:10:23;;;;;;;5.15;3.00;;;;;;;17.21;nan;101616.66;6269247;22;20031;-76
2021/08/20 09:12:49;;;;;;;8.93;2.92;;;;;;;17.28;nan;101627.25;6255348;22;20463;-49
2021/08/20 09:15:16;;;;;;;6.32;3.40;;;;;;;17.33;nan;101619.91;6208364;23;20107;-48
2021/08/20 09:17:52;;;;;;;4.22;3.05;;;;;;;17.30;nan;101619.66;6236079;23;20008;-48
2021/08/20 09:20:24;;;;;;;6.32;3.50;;;;;;;17.32;nan;101628.31;6236954;23;20095;-47
2021/08/20 09:22:51;;;;;;;5.45;3.45;;;;;;;17.32;nan;101620.19;6236519;23;20165;-46
2021/08/20 09:25:38;;;;;;;5.78;3.50;;;;;;;17.35;nan;101619.66;6238628;22;20643;-82
2021/08/20 09:28:19;;;;;;;6.13;2.40;;;;;;;17.47;nan;101626.41;6212838;23;20012;-82
2021/08/20 09:30:53;;;;;;;5.05;3.03;;;;;;;17.56;nan;101621.25;6210891;23;20015;-82
2021/08/20 09:33:21;;;;;;;6.20;3.03;;;;;;;17.55;nan;101621.53;6213078;23;20004;-83
2021/08/20 09:36:02;;;;;;;5.70;2.67;;;;;;;17.47;nan;101622.91;6213925;23;19996;-82
2021/08/20 09:38:30;;;;;;;5.15;2.65;;;;;;;17.56;nan;101618.53;6212570;23;20008;-82
2021/08/20 09:41:03;;;;;;;3.67;2.58;;;;;;;17.61;nan;101623.16;6238862;23;20007;-82
2021/08/20 09:43:34;;;;;;;3.90;3.03;;;;;;;17.61;nan;101615.84;6212602;23;20008;-82
2021/08/20 09:46:03;;;;;;;4.68;3.10;;;;;;;17.63;nan;101618.28;6212453;23;19996;-82
2021/08/20 09:48:56;;;;;;;6.35;3.40;;;;;;;17.55;nan;101616.91;6212153;23;20008;-83
2021/08/20 09:51:30;;;;;;;6.25;3.28;;;;;;;17.49;nan;101618.00;6207700;23;20341;-82
2021/08/20 09:54:00;;;;;;;6.75;2.88;;;;;;;17.44;nan;101626.16;6212250;23;20600;-82
2021/08/20 09:56:27;;;;;;;6.47;3.53;;;;;;;17.34;nan;101621.53;6212831;23;20008;-83
2021/08/20 09:58:54;;;;;;;4.20;2.97;;;;;;;17.26;nan;101618.59;6212582;23;20014;-83
2021/08/20 10:01:21;;;;;;;3.97;3.05;;;;;;;17.12;nan;101618.31;6213863;23;19996;-82
2021/08/20 10:03:48;;;;;;;4.35;3.25;;;;;;;17.17;nan;101619.09;6213591;23;20004;-83
2021/08/20 10:06:15;;;;;;;5.15;3.20;;;;;;;17.10;nan;101618.59;6214326;23;20694;-83
2021/08/20 10:08:44;;;;;;;5.03;3.50;;;;;;;17.08;nan;101617.22;6241283;23;20000;-83
2021/08/20 10:11:15;;;;;;;4.15;2.95;;;;;;;17.09;nan;101616.97;6240264;23;20000;-83
2021/08/20 10:13:42;;;;;;;4.85;3.20;;;;;;;17.05;nan;101613.13;6214811;23;20011;-83
2021/08/20 10:16:08;;;;;;;6.07;3.40;;;;;;;17.07;nan;101611.00;6213528;23;20004;-82
2021/08/20 10:18:34;;;;;;;6.90;3.35;;;;;;;17.05;nan;101617.75;6241386;23;20032;-83
2021/08/20 10:21:02;;;;;;;6.60;3.60;;;;;;;17.09;nan;101625.06;6241599;23;20057;-83
2021/08/20 10:23:28;;;;;;;4.65;3.47;;;;;;;17.13;nan;101618.03;6213316;23;20004;-83
2021/08/20 10:25:56;;;;;;;5.55;3.40;;;;;;;17.17;nan;101619.09;6225026;23;20008;-83
2021/08/20 10:28:23;;;;;;;5.88;3.50;;;;;;;17.24;nan;101616.16;6238655;23;20035;-83
2021/08/20 10:30:50;;;;;;;4.18;2.85;;;;;;;17.34;nan;101623.44;6237632;23;20579;-84
2021/08/20 10:33:32;;;;;;;3.85;2.85;;;;;;;17.35;nan;101627.78;6238683;22;20436;-83
2021/08/20 10:35:58;;;;;;;6.18;3.45;;;;;;;17.43;nan;101621.81;6239914;22;20000;-83
2021/08/20 10:38:34;;;;;;;3.67;2.70;;;;;;;17.51;nan;101624.78;6235354;23;20460;-82
2021/08/20 10:41:21;;;;;;;5.15;3.25;;;;;;;17.61;nan;101620.44;6238152;23;20114;-82
2021/08/20 10:43:57;;;;;;;5.35;2.90;;;;;;;17.34;nan;101620.72;6239791;22;20058;-85
2021/08/20 10:46:34;;;;;;;6.97;3.70;;;;;;;17.12;nan;101624.53;6240540;23;20067;-85
2021/08/20 10:49:17;;;;;;;5.82;3.00;;;;;;;16.52;nan;101634.16;6240175;23;20004;-84
2021/08/20 10:51:52;;;;;;;3.85;2.75;;;;;;;16.80;nan;101626.66;6239474;23;20360;-84
2021/08/20 10:54:37;;;;;;;3.72;3.00;;;;;;;17.03;nan;101639.69;6239372;22;20043;-84
2021/08/20 10:57:03;;;;;;;5.00;2.72;;;;;;;17.22;nan;101643.47;6240097;23;20054;-85
2021/08/20 10:59:49;;;;;;;4.57;2.65;;;;;;;17.31;nan;101645.66;6241826;22;20095;-84
2021/08/20 11:02:23;;;;;;;3.08;2.60;;;;;;;17.42;nan;101650.81;6228239;23;20011;-85
2021/08/20 11:04:59;;;;;;;4.15;2.80;;;;;;;17.58;nan;101648.06;6240125;22;20090;-85
2021/08/20 11:07:51;;;;;;;2.97;2.35;;;;;;;17.69;nan;101645.09;6239521;23;20400;-85
2021/08/20 11:10:16;;;;;;;4.15;2.63;;;;;;;17.69;nan;101645.09;6234488;23;20081;-85
2021/08/20 11:12:46;;;;;;;4.25;2.45;;;;;;;17.77;nan;101657.28;6238653;22;20099;-84
2021/08/20 11:15:18;;;;;;;4.93;2.83;;;;;;;17.39;nan;101661.34;6240523;23;20004;-85
2021/08/20 11:17:52;;;;;;;2.95;2.40;;;;;;;17.09;nan;101663.00;6240795;23;20083;-84
2021/08/20 11:21:39;;;;;;;;;;;;;;;;;;;;;
2021/08/20 11:24:09;;;;;;;3.30;2.38;;;;;;;17.86;nan;101652.13;6229316;22;20004;-85
2021/08/20 11:26:35;;;;;;;3.83;2.20;;;;;;;18.16;nan;101664.78;6238352;23;20042;-84
2021/08/20 11:29:02;;;;;;;3.63;2.13;;;;;;;18.55;nan;101656.75;6239651;23;20016;-84
2021/08/20 11:31:27;;;;;;;2.95;2.22;;;;;;;19.02;nan;101646.16;6239650;23;20074;-83
2021/08/20 11:33:55;;;;;;;4.47;2.10;;;;;;;19.63;nan;101642.16;6240647;22;20375;-84
2021/08/20 11:36:22;;;;;;;3.05;1.98;;;;;;;20.18;nan;101640.72;6239995;23;20062;-85
2021/08/20 11:38:52;;;;;;;2.08;1.60;;;;;;;20.20;nan;101643.16;6239619;23;20016;-85
2021/08/20 11:41:30;;;;;;;2.50;1.42;;;;;;;20.06;nan;101647.69;6239549;23;20008;-84